Nearby METAR Reports

 

EBAW - Antwerp/Deurne, Belgium
Distance from station: ZZO 9km
Ververst: 28/09/2021 03:50
Helder
Helder
 Wind van ZZW
Wind: ZZW 9 km/h
Temperatuur: 12°C
Dauwpunt: 9°C
Vochtigheid: 82%
Barometer: 1022 hPa
Overzicht: Helder
Visibility: greater than 10 km
2021/09/28 01:50 EBAW 280150Z AUTO 20005KT CAVOK 12/09 Q1022
EHWO - Woensdrecht Rnla, Netherlands
Distance from station: NNW 20km
Ververst: 28/09/2021 03:55
Helder
Helder
 Wind van ZZW
Wind: ZZW 9 km/h
Temperatuur: 12°C
Dauwpunt: 9°C
Vochtigheid: 82%
Barometer: 1021 hPa
Clouds: Helder
Visibility: 10 km
2021/09/28 01:55 EHWO 280155Z AUTO 21005KT 200V260 9999 NCD 12/09 Q1021 BLU
 
EBBR - Brussels Nationa, Belgium
Distance from station: Z 43km
Ververst: 28/09/2021 03:50
Helder
Helder
 Wind van Z
Wind: Z 11 km/h
Temperatuur: 10°C
Gevoelstemp.: 8°C
Dauwpunt: 8°C
Vochtigheid: 88%
Barometer: 1022 hPa
Overzicht: Helder
Visibility: greater than 10 km
2021/09/28 01:50 EBBR 280150Z 19006KT CAVOK 10/08 Q1022 NOSIG
EHGR - Gilze-Rijen Rnla, Netherlands
Distance from station: NO 47km
Ververst: 28/09/2021 03:55
Helder
Helder
 Wind van ZZW
Wind: ZZW 11 km/h
Temperatuur: 11°C
Dauwpunt: 9°C
Vochtigheid: 88%
Barometer: 1021 hPa
Clouds: Helder
Visibility: 10 km
2021/09/28 01:55 EHGR 280155Z AUTO 20006KT 170V240 9999 NCD 11/09 Q1021 BLU
 
EBDT - Schaffen, Belgium
Distance from station: OZO 54km
Ververst: 28/09/2021 03:55
Meestal bewolkt
Meestal bewolkt
 Wind van Z
Wind: Z 7 km/h
Temperatuur: 10°C
Gevoelstemp.: 9°C
Dauwpunt: 8°C
Vochtigheid: 88%
Barometer: 1022 hPa
Clouds: Meestal bewolkt
Cloud details: Meestal bewolkt 7010 m
2021/09/28 01:55 EBDT 280155Z AUTO 19004KT //// BKN230/// 10/08 Q1022 BLU
EHFS - Vlissingen, Netherlands
Distance from station: WNW 60km
Ververst: 28/09/2021 03:55
Meestal bewolkt
Meestal bewolkt
 Wind van ZZW
Wind: ZZW 26 km/h
Temperatuur: 13°C
Dauwpunt: 11°C
Vochtigheid: 88%
Barometer: 1021 hPa
Clouds: Meestal bewolkt
Visibility: 10 km
Cloud details: Gedeeltelijk bewolkt 853 m
Meestal bewolkt 975 m
Meestal bewolkt 1280 m
2021/09/28 01:55 EHFS 280155Z AUTO 20014KT 9999 SCT028/// BKN032/// BKN042/// 13/11 Q1021
 
EBBE - Beauvechain (baf, Belgium
Distance from station: ZZO 64km
Ververst: 28/09/2021 03:55
Meestal bewolkt
Meestal bewolkt
 Wind van ZZW
Wind: ZZW 13 km/h
Temperatuur: 11°C
Dauwpunt: 8°C
Vochtigheid: 82%
Barometer: 1022 hPa
Clouds: Meestal bewolkt
Visibility: 10 km
Cloud details: Meestal bewolkt 6401 m
2021/09/28 01:55 EBBE 280155Z AUTO 21007KT 9999 BKN210/// 11/08 Q1022 BLU
EHEH - Eindhoven Rnlafb, Netherlands
Distance from station: ONO 69km
Ververst: 28/09/2021 03:55
Zwaar bewolkt
Zwaar bewolkt
 Wind van ZZW
Wind: ZZW 11 km/h
Temperatuur: 10°C
Gevoelstemp.: 8°C
Dauwpunt: 9°C
Vochtigheid: 94%
Barometer: 1022 hPa
Clouds: Zwaar bewolkt
Visibility: 10 km
Cloud details: Zwaar bewolkt 7010 m
2021/09/28 01:55 EHEH 280155Z AUTO 20006KT 9999 OVC230 10/09 Q1022 BLU
 
EBBL - Kleine-Brogel(Ba, Belgium
Distance from station: O 74km
Ververst: 28/09/2021 03:55
Meestal bewolkt
Meestal bewolkt
 Wind van ZZW
Wind: ZZW 11 km/h
Temperatuur: 11°C
Dauwpunt: 9°C
Vochtigheid: 88%
Barometer: 1022 hPa
Clouds: Meestal bewolkt
Visibility: 10 km
Cloud details: Meestal bewolkt 7010 m
2021/09/28 01:55 EBBL 280155Z AUTO 21006KT 9999 BKN230/// 11/09 Q1022 BLU
EHRD - Rotterdam Airpor, Netherlands
Distance from station: N 75km
Ververst: 28/09/2021 03:55
Helder
Helder
 Wind van Z
Wind: Z 11 km/h
Temperatuur: 13°C
Dauwpunt: 11°C
Vochtigheid: 88%
Barometer: 1020 hPa
Clouds: Helder
Visibility: 10 km
2021/09/28 01:55 EHRD 280155Z AUTO 19006KT 160V220 9999 NCD 13/11 Q1020 NOSIG
 
EHSC - Goeree Le Sea, Netherlands
Distance from station: NW 89km
Ververst: 28/09/2021 03:55

 Wind van WZW
Wind: WZW 35 km/h
Temperatuur: 17°C
Dauwpunt: 9°C
Vochtigheid: 59%
Barometer: 1020 hPa
Visibility: 10 km
2021/09/28 01:55 EHSC 280155Z AUTO 25019KT 9999 ///////// 17/09 Q1020 W18/H15
EBCI - Charleroi/Gossel, Belgium
Distance from station: Z 90km
Ververst: 28/09/2021 03:50
Helder
Helder
 Wind van ZZW
Wind: ZZW 15 km/h
Temperatuur: 11°C
Dauwpunt: 8°C
Vochtigheid: 82%
Barometer: 1023 hPa
Overzicht: Helder
Visibility: greater than 10 km
2021/09/28 01:50 EBCI 280150Z 21008KT CAVOK 11/08 Q1023 NOSIG
 
EBCV - Chievres Ab, Belgium
Distance from station: ZZW 90km
Ververst: 28/09/2021 03:55
Helder
Helder
 Wind van Z
Wind: Z 13 km/h
Temperatuur: 10°C
Gevoelstemp.: 8°C
Dauwpunt: 8°C
Vochtigheid: 88%
Barometer: 1022 hPa
Clouds: Helder
Visibility: 10 km
2021/09/28 01:55 EBCV 280155Z AUTO 18007KT 9999 NCD 10/08 Q1022 BLU
EHVK - Volkel Rnlafb, Netherlands
Distance from station: ONO 97km
Ververst: 28/09/2021 03:55
Zwaar bewolkt
Zwaar bewolkt
 Wind van ZW
Wind: ZW 11 km/h
Temperatuur: 9°C
Gevoelstemp.: 7°C
Dauwpunt: 8°C
Vochtigheid: 94%
Barometer: 1021 hPa
Clouds: Zwaar bewolkt
Visibility: 10 km
Cloud details: Zwaar bewolkt 7315 m
2021/09/28 01:55 EHVK 280155Z AUTO 22006KT 9999 OVC240 09/08 Q1021 BLU
 
EBLG - Bierset/Liege (c, Belgium
Distance from station: ZO 102km
Ververst: 28/09/2021 03:50
Helder
Helder
 Wind van Z
Wind: Z 13 km/h
Temperatuur: 11°C
Dauwpunt: 9°C
Vochtigheid: 88%
Barometer: 1023 hPa
Overzicht: Helder
Visibility: greater than 10 km
2021/09/28 01:50 EBLG 280150Z 19007KT 150V210 CAVOK 11/09 Q1023 NOSIG
EHBK - Zuid-Limburg/Bee, Netherlands
Distance from station: OZO 102km
Ververst: 28/09/2021 03:55
Gedeeltelijk bewolkt
Gedeeltelijk bewolkt
 Wind van ZZW
Wind: ZZW 13 km/h
Temperatuur: 11°C
Dauwpunt: 9°C
Vochtigheid: 88%
Barometer: 1022 hPa
Clouds: Gedeeltelijk bewolkt
Visibility: 10 km
2021/09/28 01:55 EHBK 280155Z AUTO 20007KT 9999 NSC 11/09 Q1022
 
EBOS - Oostende Airport, Belgium
Distance from station: W 108km
Ververst: 28/09/2021 03:50
Few Clouds
Few Clouds
 Wind van ZZW
Wind: ZZW 6 km/h
Temperatuur: 9°C
Dauwpunt: 9°C
Vochtigheid: 100%
Barometer: 1021 hPa
Clouds: Few Clouds
Visibility: 10 km
Cloud details: Few Clouds 1036 m
2021/09/28 01:50 EBOS 280150Z 20003KT 160V230 9999 FEW034 09/09 Q1021 NOSIG
EHSA - Euro Platform, Netherlands
Distance from station: NW 112km
Ververst: 28/09/2021 03:55

 Wind van ZW
Wind: ZW 31 km/h
Temperatuur: 16°C
Dauwpunt: 9°C
Vochtigheid: 63%
Barometer: 1020 hPa
Visibility: 10 km
2021/09/28 01:55 EHSA 280155Z AUTO 23017KT 9999 ///////// 16/09 Q1020 W18/H15
 
EHAM - Amsterdam/Schiph, Netherlands
Distance from station: NNO 118km
Ververst: 28/09/2021 03:55
Few Clouds
Few Clouds
 Wind van Z
Wind: Z 15 km/h
Temperatuur: 12°C
Dauwpunt: 11°C
Vochtigheid: 94%
Barometer: 1020 hPa
Clouds: Few Clouds
Visibility: 10 km
Cloud details: Few Clouds 914 m
2021/09/28 01:55 EHAM 280155Z 19008KT 9999 FEW030 12/11 Q1020 NOSIG
ETNG - Geilenkirchen(Na, Germany
Distance from station: OZO 118km
Ververst: 28/09/2021 03:50
Helder
Helder
 Wind van ZZW
Wind: ZZW 11 km/h
Temperatuur: 12°C
Dauwpunt: 10°C
Vochtigheid: 88%
Barometer: 1022 hPa
Overzicht: Helder
Visibility: greater than 10 km
2021/09/28 01:50 ETNG 280150Z 21006KT CAVOK 12/10 Q1022